sensor_id;sensor_type;location;lat;lon;timestamp;temperature;humidity
55329;DHT22;41205;44.264;19.884;2023-05-15T00:35:06;460.80;2380.80
55329;DHT22;41205;44.264;19.884;2023-05-15T00:37:32;436.00;2355.20
55329;DHT22;41205;44.264;19.884;2023-05-15T00:39:58;436.00;2355.20
55329;DHT22;41205;44.264;19.884;2023-05-15T00:42:24;436.10;2355.20
55329;DHT22;41205;44.264;19.884;2023-05-15T00:44:51;436.10;2355.20
55329;DHT22;41205;44.264;19.884;2023-05-15T00:47:19;436.00;2355.20
55329;DHT22;41205;44.264;19.884;2023-05-15T00:49:46;435.90;2355.20
55329;DHT22;41205;44.264;19.884;2023-05-15T00:52:14;435.90;2355.20
55329;DHT22;41205;44.264;19.884;2023-05-15T00:54:39;435.90;2355.20
55329;DHT22;41205;44.264;19.884;2023-05-15T00:57:06;435.90;2355.20
55329;DHT22;41205;44.264;19.884;2023-05-15T00:59:33;435.90;2355.20
55329;DHT22;41205;44.264;19.884;2023-05-15T01:01:59;436.00;2355.20
55329;DHT22;41205;44.264;19.884;2023-05-15T01:04:25;435.90;2355.20
55329;DHT22;41205;44.264;19.884;2023-05-15T01:06:51;435.90;2355.20
55329;DHT22;41205;44.264;19.884;2023-05-15T01:09:22;435.90;2355.20
55329;DHT22;41205;44.264;19.884;2023-05-15T01:11:49;435.90;2355.20
55329;DHT22;41205;44.264;19.884;2023-05-15T01:14:15;435.90;2355.20
55329;DHT22;41205;44.264;19.884;2023-05-15T01:16:41;435.90;2355.20
55329;DHT22;41205;44.264;19.884;2023-05-15T01:19:07;435.90;2355.20
55329;DHT22;41205;44.264;19.884;2023-05-15T01:32:09;436.00;2355.20
55329;DHT22;41205;44.264;19.884;2023-05-15T01:37:28;436.10;2355.20
55329;DHT22;41205;44.264;19.884;2023-05-15T01:39:59;435.90;2355.20
55329;DHT22;41205;44.264;19.884;2023-05-15T01:42:30;435.90;2355.20
55329;DHT22;41205;44.264;19.884;2023-05-15T01:45:00;435.90;2355.20
55329;DHT22;41205;44.264;19.884;2023-05-15T01:47:39;435.90;2355.20
55329;DHT22;41205;44.264;19.884;2023-05-15T01:50:09;436.00;2355.20
55329;DHT22;41205;44.264;19.884;2023-05-15T01:52:39;435.90;2355.20
55329;DHT22;41205;44.264;19.884;2023-05-15T01:55:06;435.90;2355.20
55329;DHT22;41205;44.264;19.884;2023-05-15T01:57:33;435.90;2355.20
55329;DHT22;41205;44.264;19.884;2023-05-15T02:00:00;435.80;2355.20
55329;DHT22;41205;44.264;19.884;2023-05-15T02:02:28;435.80;2355.20
55329;DHT22;41205;44.264;19.884;2023-05-15T02:04:56;435.70;2355.20
55329;DHT22;41205;44.264;19.884;2023-05-15T02:07:22;435.60;2355.20
55329;DHT22;41205;44.264;19.884;2023-05-15T02:09:50;435.60;2355.20
55329;DHT22;41205;44.264;19.884;2023-05-15T02:12:17;435.60;2355.20
55329;DHT22;41205;44.264;19.884;2023-05-15T02:14:44;435.60;2355.20
55329;DHT22;41205;44.264;19.884;2023-05-15T02:17:11;435.60;2355.20
55329;DHT22;41205;44.264;19.884;2023-05-15T02:19:36;435.60;2355.20
55329;DHT22;41205;44.264;19.884;2023-05-15T02:22:02;435.70;2355.20
55329;DHT22;41205;44.264;19.884;2023-05-15T02:24:28;435.60;2355.20
55329;DHT22;41205;44.264;19.884;2023-05-15T02:26:55;435.50;2355.20
55329;DHT22;41205;44.264;19.884;2023-05-15T02:29:35;435.40;2355.20
55329;DHT22;41205;44.264;19.884;2023-05-15T02:32:13;435.40;2355.20
55329;DHT22;41205;44.264;19.884;2023-05-15T02:37:31;435.40;2355.20
55329;DHT22;41205;44.264;19.884;2023-05-15T02:40:00;435.40;2355.20
55329;DHT22;41205;44.264;19.884;2023-05-15T02:42:27;435.40;2355.20
55329;DHT22;41205;44.264;19.884;2023-05-15T02:44:54;435.30;2355.20
55329;DHT22;41205;44.264;19.884;2023-05-15T02:47:22;435.30;2355.20
55329;DHT22;41205;44.264;19.884;2023-05-15T02:49:48;435.30;2355.20
55329;DHT22;41205;44.264;19.884;2023-05-15T02:52:14;435.30;2355.20
55329;DHT22;41205;44.264;19.884;2023-05-15T02:54:40;435.30;2355.20
55329;DHT22;41205;44.264;19.884;2023-05-15T02:57:06;435.20;2355.20
55329;DHT22;41205;44.264;19.884;2023-05-15T02:59:35;410.50;2355.20
55329;DHT22;41205;44.264;19.884;2023-05-15T03:02:01;410.40;2355.20
55329;DHT22;41205;44.264;19.884;2023-05-15T03:11:46;410.30;2355.20
55329;DHT22;41205;44.264;19.884;2023-05-15T03:14:12;410.10;2355.20
55329;DHT22;41205;44.264;19.884;2023-05-15T03:16:37;410.10;2355.20
55329;DHT22;41205;44.264;19.884;2023-05-15T05:08:53;436.10;2355.20
55329;DHT22;41205;44.264;19.884;2023-05-15T05:11:19;436.00;2355.20
55329;DHT22;41205;44.264;19.884;2023-05-15T05:13:46;435.90;2355.20
55329;DHT22;41205;44.264;19.884;2023-05-15T05:16:11;436.10;2355.20
55329;DHT22;41205;44.264;19.884;2023-05-15T05:23:29;486.40;2380.80
55329;DHT22;41205;44.264;19.884;2023-05-15T05:28:22;487.10;2380.80
55329;DHT22;41205;44.264;19.884;2023-05-15T09:17:53;537.90;2406.40
55329;DHT22;41205;44.264;19.884;2023-05-15T09:20:37;537.90;2406.40
55329;DHT22;41205;44.264;19.884;2023-05-15T09:23:04;538.30;2406.40
55329;DHT22;41205;44.264;19.884;2023-05-15T09:25:39;538.50;2406.40
55329;DHT22;41205;44.264;19.884;2023-05-15T12:14:29;614.90;2432.00
55329;DHT22;41205;44.264;19.884;2023-05-15T12:17:02;614.70;2432.00
55329;DHT22;41205;44.264;19.884;2023-05-15T13:58:27;589.60;2432.00
55329;DHT22;41205;44.264;19.884;2023-05-15T15:01:50;538.30;2406.40
55329;DHT22;41205;44.264;19.884;2023-05-15T15:06:42;538.00;2406.40
55329;DHT22;41205;44.264;19.884;2023-05-15T15:09:08;537.70;2406.40
55329;DHT22;41205;44.264;19.884;2023-05-15T15:21:20;512.80;2380.80
55329;DHT22;41205;44.264;19.884;2023-05-15T15:23:46;512.40;2380.80
55329;DHT22;41205;44.264;19.884;2023-05-15T15:26:13;512.20;2380.80
55329;DHT22;41205;44.264;19.884;2023-05-15T15:28:38;512.10;2380.80
55329;DHT22;41205;44.264;19.884;2023-05-15T16:05:13;512.40;2380.80
55329;DHT22;41205;44.264;19.884;2023-05-15T16:07:39;512.20;2380.80
55329;DHT22;41205;44.264;19.884;2023-05-15T16:10:05;512.30;2380.80
55329;DHT22;41205;44.264;19.884;2023-05-15T16:12:32;512.30;2380.80
55329;DHT22;41205;44.264;19.884;2023-05-15T16:14:58;512.20;2380.80
55329;DHT22;41205;44.264;19.884;2023-05-15T16:17:23;512.00;2380.80
55329;DHT22;41205;44.264;19.884;2023-05-15T16:39:18;487.10;2380.80
55329;DHT22;41205;44.264;19.884;2023-05-15T18:09:30;486.40;2380.80
55329;DHT22;41205;44.264;19.884;2023-05-15T18:11:55;486.40;2380.80
55329;DHT22;41205;44.264;19.884;2023-05-15T18:14:21;461.70;2380.80
55329;DHT22;41205;44.264;19.884;2023-05-15T18:16:47;461.70;2380.80
55329;DHT22;41205;44.264;19.884;2023-05-15T18:19:12;486.40;2380.80
55329;DHT22;41205;44.264;19.884;2023-05-15T18:21:38;486.50;2380.80
55329;DHT22;41205;44.264;19.884;2023-05-15T18:24:04;486.40;2380.80
55329;DHT22;41205;44.264;19.884;2023-05-15T18:26:29;461.70;2380.80
55329;DHT22;41205;44.264;19.884;2023-05-15T18:28:55;486.40;2380.80
55329;DHT22;41205;44.264;19.884;2023-05-15T18:31:21;486.50;2380.80
55329;DHT22;41205;44.264;19.884;2023-05-15T18:33:47;486.50;2380.80
55329;DHT22;41205;44.264;19.884;2023-05-15T18:36:13;486.40;2380.80
55329;DHT22;41205;44.264;19.884;2023-05-15T18:38:39;486.40;2099.20
55329;DHT22;41205;44.264;19.884;2023-05-15T18:41:04;486.40;2201.60
55329;DHT22;41205;44.264;19.884;2023-05-15T18:43:30;461.70;2124.80
55329;DHT22;41205;44.264;19.884;2023-05-15T18:45:56;461.70;2380.80
55329;DHT22;41205;44.264;19.884;2023-05-15T18:48:21;461.70;2380.80
55329;DHT22;41205;44.264;19.884;2023-05-15T18:50:47;461.70;2380.80
55329;DHT22;41205;44.264;19.884;2023-05-15T18:53:13;461.70;2380.80
55329;DHT22;41205;44.264;19.884;2023-05-15T19:00:31;461.70;2380.80
55329;DHT22;41205;44.264;19.884;2023-05-15T19:02:56;461.50;2380.80
55329;DHT22;41205;44.264;19.884;2023-05-15T19:37:07;486.40;2380.80
55329;DHT22;41205;44.264;19.884;2023-05-15T19:39:33;461.70;2380.80
55329;DHT22;41205;44.264;19.884;2023-05-15T19:41:59;461.70;2380.80
55329;DHT22;41205;44.264;19.884;2023-05-15T19:44:25;461.70;2380.80
55329;DHT22;41205;44.264;19.884;2023-05-15T19:46:50;461.70;2278.40
55329;DHT22;41205;44.264;19.884;2023-05-15T19:49:16;461.70;2380.80
55329;DHT22;41205;44.264;19.884;2023-05-15T19:51:42;461.70;2380.80
55329;DHT22;41205;44.264;19.884;2023-05-15T19:54:07;461.70;2380.80
55329;DHT22;41205;44.264;19.884;2023-05-15T19:56:35;461.60;2278.40
55329;DHT22;41205;44.264;19.884;2023-05-15T19:59:01;461.60;2380.80
55329;DHT22;41205;44.264;19.884;2023-05-15T20:01:26;461.50;2227.20
55329;DHT22;41205;44.264;19.884;2023-05-15T20:03:52;461.70;2380.80
55329;DHT22;41205;44.264;19.884;2023-05-15T20:06:19;461.50;2380.80
55329;DHT22;41205;44.264;19.884;2023-05-15T20:08:46;461.60;2099.20
55329;DHT22;41205;44.264;19.884;2023-05-15T20:11:11;461.70;2380.80
55329;DHT22;41205;44.264;19.884;2023-05-15T20:13:37;461.70;2380.80
55329;DHT22;41205;44.264;19.884;2023-05-15T20:16:03;461.60;2380.80
55329;DHT22;41205;44.264;19.884;2023-05-15T20:18:34;461.50;2380.80
55329;DHT22;41205;44.264;19.884;2023-05-15T20:21:00;461.50;2380.80
55329;DHT22;41205;44.264;19.884;2023-05-15T20:23:26;461.50;2380.80
55329;DHT22;41205;44.264;19.884;2023-05-15T20:25:52;461.50;2380.80
55329;DHT22;41205;44.264;19.884;2023-05-15T20:28:17;461.60;2380.80
55329;DHT22;41205;44.264;19.884;2023-05-15T20:30:44;461.50;2380.80
55329;DHT22;41205;44.264;19.884;2023-05-15T20:33:12;461.50;2380.80
55329;DHT22;41205;44.264;19.884;2023-05-15T20:35:37;461.50;2380.80
55329;DHT22;41205;44.264;19.884;2023-05-15T20:38:03;461.40;2380.80
55329;DHT22;41205;44.264;19.884;2023-05-15T20:40:29;461.30;2380.80
